sim
Sign-in with your pilot id or email,
or register
Callsign
Passwort

Schedule Details

Flight Number: RYR5476 (1)
Departure: Madrid Barajas Airport (LEMD) at 12:45
Arrival: Fuerteventura Airport (GCFV) at 15:30
Route: Ryanair Passenger Schedule. Enter filed route here before submitting Pirep.

Weather Information
Getting current METAR information for LEMD 172200Z 27009KT CAVOK 32/02 Q1013 NOSIG
Getting current METAR information for GCFV 172200Z 03007KT CAVOK 24/20 Q1013

Schedule Frequency

Route Map